This is the latest recevied weather packets stored in our database for station/object N5SRF. If no packets are shown the sender has not sent any weather packets the latest 10 day(s).
| Time | Temp. | Humidity | Pressure | Rain* | Wind** | Luminosity | Snow |
|---|---|---|---|---|---|---|---|
| 1787861631 | 34.44° C | 62% | 1017 hPa | 0 mm | - | 136 W/m² | - |
| 1787861329 | 34.44° C | 62% | 1017 hPa | 0 mm | - | 159 W/m² | - |
| 1787861024 | 34.44° C | 60% | 1016.8 hPa | 0 mm | - | 158 W/m² | - |
| 1787860723 | 34.44° C | 61% | 1016.8 hPa | 0 mm | - | 154 W/m² | - |
| 1787860419 | 34.44° C | 60% | 1016.9 hPa | 0 mm | - | 149 W/m² | - |
| 1787860118 | 35° C | 58% | 1016.9 hPa | 0 mm | - | 151 W/m² | - |
| 1787859814 | 35° C | 60% | 1017.2 hPa | 0 mm | - | 181 W/m² | - |
| 1787859513 | 33.89° C | 62% | 1017.2 hPa | 0 mm | - | 701 W/m² | - |
| 1787859208 | 33.89° C | 61% | 1017.2 hPa | 0 mm | - | 189 W/m² | - |
| 1787858899 | 34.44° C | 60% | 1017.2 hPa | 0 mm | - | 134 W/m² | - |
| 1787858594 | 35° C | 60% | 1017.4 hPa | 0 mm | - | 104 W/m² | - |
| 1787858289 | 35.56° C | 58% | 1017.4 hPa | 0 mm | - | 82 W/m² | - |
| 1787857984 | 36.11° C | 56% | 1017.3 hPa | 0 mm | - | 733 W/m² | - |
| 1787857680 | 36.67° C | 57% | 1017.5 hPa | 0 mm | - | 745 W/m² | - |
| 1787857375 | 36.11° C | 56% | 1017.5 hPa | 0 mm | - | 706 W/m² | - |
| 1787857072 | 36.11° C | 57% | 1017.5 hPa | 0 mm | - | 765 W/m² | - |
| 1787856767 | 36.11° C | 58% | 1017.8 hPa | 0 mm | - | 824 W/m² | - |
| 1787856462 | 36.11° C | 59% | 1017.6 hPa | 0 mm | - | 733 W/m² | - |
| 1787856159 | 35.56° C | 59% | 1017.8 hPa | 0 mm | - | 748 W/m² | - |
| 1787855853 | 35.56° C | 59% | 1018 hPa | 0 mm | - | 787 W/m² | - |
| 1787855552 | 34.44° C | 62% | 1017.8 hPa | 0 mm | - | 650 W/m² | - |
| 1787855248 | 34.44° C | 63% | 1017.7 hPa | 0 mm | - | 274 W/m² | - |
| 1787854943 | 35° C | 62% | 1018 hPa | 0 mm | - | 895 W/m² | - |
| 1787854639 | 35° C | 62% | 1018.1 hPa | 0 mm | - | 264 W/m² | - |
| 1787854333 | 35° C | 62% | 1018.2 hPa | 0 mm | - | 259 W/m² | - |
* Rain latest hour (hover to see other rain measurements)
** Current wind speed in m/s (hover to see current wind gust speed)